Time;durP1;ratioP1;P1;durP2;ratioP2;P2;SDS_P1;SDS_P2;PMS_P1;PMS_P2;Temp;Humidity;BMP_temperature;BMP_pressure;BME280_temperature;BME280_humidity;BME280_pressure;Samples;Min_cycle;Max_cycle;Signal;HPM_P1;HPM_P2
2021/04/17 00:00:15;;;;;;;26.10;4.93;;;;;;;;;;5091524;28;20024;-77
2021/04/17 00:02:41;;;;;;;19.70;3.75;;;;;;;;;;5088931;28;20031;-79
2021/04/17 00:05:08;;;;;;;24.58;4.75;;;;;;;;;;5090545;28;20081;-77
2021/04/17 00:07:34;;;;;;;14.80;3.22;;;;;;;;;;5091607;28;20020;-78
2021/04/17 00:10:00;;;;;;;18.30;3.88;;;;;;;;;;5089295;28;20101;-77
2021/04/17 00:12:27;;;;;;;20.58;4.90;;;;;;;;;;5087085;28;20024;-76
2021/04/17 00:14:53;;;;;;;23.08;4.07;;;;;;;;;;5089414;28;20028;-76
2021/04/17 00:17:20;;;;;;;14.90;4.85;;;;;;;;;;5087168;28;20165;-77
2021/04/17 00:19:48;;;;;;;15.75;3.70;;;;;;;;;;5090463;28;20073;-78
2021/04/17 00:22:14;;;;;;;18.55;3.28;;;;;;;;;;5092809;28;20028;-77
2021/04/17 00:24:40;;;;;;;20.15;3.90;;;;;;;;;;5084965;28;20033;-79
2021/04/17 00:27:06;;;;;;;15.85;2.70;;;;;;;;;;5082750;28;20055;-76
2021/04/17 00:29:32;;;;;;;22.63;4.15;;;;;;;;;;5088828;28;20030;-78
2021/04/17 00:32:03;;;;;;;19.85;4.18;;;;;;;;;;5089861;28;20474;-77
2021/04/17 00:34:29;;;;;;;20.25;3.47;;;;;;;;;;5074847;28;20490;-77
2021/04/17 00:36:55;;;;;;;13.73;4.25;;;;;;;;;;5082315;28;20089;-77
2021/04/17 00:39:22;;;;;;;14.70;3.58;;;;;;;;;;5090658;28;20058;-76
2021/04/17 00:41:48;;;;;;;22.50;3.95;;;;;;;;;;5083725;28;20425;-77
2021/04/17 00:44:15;;;;;;;24.40;4.00;;;;;;;;;;5082559;28;20039;-77
2021/04/17 00:46:41;;;;;;;18.55;4.57;;;;;;;;;;5088370;28;20028;-78
2021/04/17 00:49:08;;;;;;;20.52;4.40;;;;;;;;;;5079766;28;20501;-79
2021/04/17 00:51:35;;;;;;;18.27;5.05;;;;;;;;;;5073669;28;20027;-83
2021/04/17 00:54:02;;;;;;;21.77;4.95;;;;;;;;;;5082370;28;20104;-77
2021/04/17 00:56:28;;;;;;;23.88;5.00;;;;;;;;;;5088364;28;20105;-77
2021/04/17 00:58:54;;;;;;;18.30;3.97;;;;;;;;;;5089660;28;20025;-76
2021/04/17 01:01:20;;;;;;;17.17;4.93;;;;;;;;;;5087700;28;20027;-77
2021/04/17 01:03:58;;;;;;;19.13;4.53;;;;;;;;;;5085023;28;20025;-74
2021/04/17 01:06:47;;;;;;;19.15;4.75;;;;;;;;;;5078276;28;20023;-76
2021/04/17 01:09:24;;;;;;;20.52;4.47;;;;;;;;;;5085061;28;20115;-77
2021/04/17 01:12:02;;;;;;;21.05;6.22;;;;;;;;;;5085027;28;21476;-76
2021/04/17 01:14:28;;;;;;;19.05;4.80;;;;;;;;;;5089082;28;20023;-80
2021/04/17 01:16:55;;;;;;;20.10;4.90;;;;;;;;;;5089476;28;20065;-77
2021/04/17 01:19:32;;;;;;;15.30;4.68;;;;;;;;;;5089597;28;20063;-76
2021/04/17 01:21:59;;;;;;;18.38;4.45;;;;;;;;;;5095620;28;20502;-78
2021/04/17 01:24:27;;;;;;;18.02;3.58;;;;;;;;;;5077921;28;20039;-76
2021/04/17 01:26:54;;;;;;;26.42;4.50;;;;;;;;;;5087649;28;20486;-76
2021/04/17 01:29:20;;;;;;;16.15;4.90;;;;;;;;;;5087442;28;20049;-77
2021/04/17 01:31:46;;;;;;;20.83;4.45;;;;;;;;;;5088118;28;20082;-78
2021/04/17 01:34:12;;;;;;;17.08;4.68;;;;;;;;;;5075067;28;20027;-75
2021/04/17 01:36:39;;;;;;;17.40;4.82;;;;;;;;;;5090064;28;20077;-77
2021/04/17 01:39:07;;;;;;;18.92;3.95;;;;;;;;;;5088148;28;20090;-77
2021/04/17 01:41:48;;;;;;;17.17;4.88;;;;;;;;;;5085672;28;20036;-77
2021/04/17 01:44:16;;;;;;;20.55;4.05;;;;;;;;;;5081672;28;20085;-77
2021/04/17 01:46:43;;;;;;;14.45;3.97;;;;;;;;;;5089378;28;20031;-78
2021/04/17 01:49:11;;;;;;;18.02;3.63;;;;;;;;;;5077637;28;20025;-77
2021/04/17 01:51:38;;;;;;;11.60;3.88;;;;;;;;;;5088606;28;20108;-78
2021/04/17 01:54:08;;;;;;;12.77;4.10;;;;;;;;;;5090798;28;20107;-79
2021/04/17 01:56:35;;;;;;;12.40;4.20;;;;;;;;;;5089113;28;20547;-82
2021/04/17 01:59:01;;;;;;;18.27;3.90;;;;;;;;;;5088545;28;20024;-77
2021/04/17 02:01:28;;;;;;;19.60;3.60;;;;;;;;;;5089021;28;20012;-78
2021/04/17 02:03:54;;;;;;;21.73;4.38;;;;;;;;;;5084389;28;20020;-76
2021/04/17 02:06:20;;;;;;;15.93;4.82;;;;;;;;;;5084573;28;20012;-79
2021/04/17 02:08:46;;;;;;;22.38;4.18;;;;;;;;;;5083990;28;20020;-79
2021/04/17 02:11:12;;;;;;;18.80;4.43;;;;;;;;;;5082499;28;20051;-77
2021/04/17 02:13:39;;;;;;;19.95;4.97;;;;;;;;;;5092641;28;20092;-79
2021/04/17 02:16:08;;;;;;;14.55;3.60;;;;;;;;;;5093322;28;20024;-78
2021/04/17 02:18:47;;;;;;;22.77;4.13;;;;;;;;;;5087438;28;20044;-82
2021/04/17 02:21:15;;;;;;;14.20;3.50;;;;;;;;;;5090554;28;20016;-77
2021/04/17 02:23:42;;;;;;;20.98;4.82;;;;;;;;;;5093160;28;20036;-77
2021/04/17 02:26:08;;;;;;;17.73;3.72;;;;;;;;;;5093763;28;20028;-78
2021/04/17 02:28:34;;;;;;;20.83;4.05;;;;;;;;;;5092035;28;20024;-77
2021/04/17 02:31:04;;;;;;;25.83;4.75;;;;;;;;;;5081516;28;20028;-78
2021/04/17 02:33:30;;;;;;;17.17;4.32;;;;;;;;;;5086322;28;20101;-77
2021/04/17 02:35:56;;;;;;;17.92;5.07;;;;;;;;;;5085994;28;20036;-77
2021/04/17 02:38:22;;;;;;;10.30;3.95;;;;;;;;;;5086869;28;20494;-77
2021/04/17 02:40:49;;;;;;;14.45;3.63;;;;;;;;;;5092143;28;20020;-77
2021/04/17 02:43:15;;;;;;;17.38;4.22;;;;;;;;;;5091648;28;20039;-77
2021/04/17 02:45:41;;;;;;;8.82;2.97;;;;;;;;;;5080317;28;20501;-77
2021/04/17 02:48:07;;;;;;;21.08;2.45;;;;;;;;;;5092422;28;20530;-76
2021/04/17 02:50:33;;;;;;;9.30;2.70;;;;;;;;;;5092466;28;20027;-83
2021/04/17 02:52:59;;;;;;;13.63;2.70;;;;;;;;;;5092541;28;20064;-77
2021/04/17 02:55:25;;;;;;;9.52;2.25;;;;;;;;;;5089260;28;20036;-78
2021/04/17 02:57:52;;;;;;;9.35;2.33;;;;;;;;;;5089949;28;20028;-77
2021/04/17 03:00:19;;;;;;;9.68;2.53;;;;;;;;;;5092812;28;20028;-79
2021/04/17 03:02:45;;;;;;;11.73;2.85;;;;;;;;;;5084598;28;20028;-77
2021/04/17 03:05:11;;;;;;;11.65;2.65;;;;;;;;;;5088720;28;20050;-78
2021/04/17 03:07:38;;;;;;;9.57;2.40;;;;;;;;;;5093741;28;20032;-77
2021/04/17 03:10:05;;;;;;;16.00;2.03;;;;;;;;;;5083583;28;20028;-78
2021/04/17 03:12:31;;;;;;;6.53;2.75;;;;;;;;;;5085590;28;20103;-78
2021/04/17 03:14:57;;;;;;;11.13;2.10;;;;;;;;;;5090872;28;20039;-78
2021/04/17 03:17:23;;;;;;;10.38;2.35;;;;;;;;;;5085782;28;20027;-78
2021/04/17 03:19:49;;;;;;;11.25;2.25;;;;;;;;;;5093220;28;20039;-77
2021/04/17 03:22:15;;;;;;;10.68;3.35;;;;;;;;;;5089466;28;20028;-78
2021/04/17 03:24:41;;;;;;;19.85;3.72;;;;;;;;;;5082505;28;20102;-78
2021/04/17 03:27:08;;;;;;;14.32;2.90;;;;;;;;;;5089831;28;20032;-78
2021/04/17 03:29:34;;;;;;;9.77;3.33;;;;;;;;;;5083305;28;20024;-79
2021/04/17 03:32:00;;;;;;;7.75;2.13;;;;;;;;;;5088822;28;20075;-77
2021/04/17 03:34:26;;;;;;;13.35;2.28;;;;;;;;;;5085309;28;20020;-77
2021/04/17 03:36:52;;;;;;;6.55;2.35;;;;;;;;;;5085038;28;20035;-77
2021/04/17 03:39:18;;;;;;;7.93;2.10;;;;;;;;;;5093821;28;20020;-76
2021/04/17 03:41:44;;;;;;;8.02;2.47;;;;;;;;;;5089654;28;20047;-80
2021/04/17 03:44:10;;;;;;;8.63;2.65;;;;;;;;;;5086498;28;20020;-81
2021/04/17 03:46:37;;;;;;;8.77;2.40;;;;;;;;;;5088009;28;20021;-78
2021/04/17 03:49:03;;;;;;;16.23;3.72;;;;;;;;;;5079107;28;20024;-78
2021/04/17 03:51:29;;;;;;;19.10;3.63;;;;;;;;;;5079348;28;20036;-78
2021/04/17 03:53:56;;;;;;;14.15;3.22;;;;;;;;;;5089809;28;20024;-77
2021/04/17 03:56:22;;;;;;;16.50;3.28;;;;;;;;;;5085572;28;20089;-78
2021/04/17 03:58:48;;;;;;;11.48;3.13;;;;;;;;;;5090933;28;20024;-80
2021/04/17 04:01:14;;;;;;;11.18;3.30;;;;;;;;;;5074673;28;20029;-78
2021/04/17 04:03:40;;;;;;;14.98;3.10;;;;;;;;;;5089723;28;20482;-77
2021/04/17 04:06:06;;;;;;;18.65;3.65;;;;;;;;;;5084070;28;20024;-78
2021/04/17 04:08:32;;;;;;;11.25;3.33;;;;;;;;;;5090416;28;20541;-79
2021/04/17 04:10:59;;;;;;;13.25;3.00;;;;;;;;;;5076522;28;20074;-78
2021/04/17 04:13:25;;;;;;;10.40;3.15;;;;;;;;;;5087650;28;20024;-77
2021/04/17 04:15:51;;;;;;;13.90;3.17;;;;;;;;;;5088911;28;20059;-78
2021/04/17 04:18:17;;;;;;;11.77;4.10;;;;;;;;;;5051853;28;850757;-78
2021/04/17 04:20:43;;;;;;;17.42;2.60;;;;;;;;;;5089876;28;20029;-78
2021/04/17 04:23:09;;;;;;;19.10;4.05;;;;;;;;;;5090275;28;20032;-77
2021/04/17 04:25:35;;;;;;;11.45;3.22;;;;;;;;;;5086451;28;20505;-80
2021/04/17 04:28:01;;;;;;;13.88;3.28;;;;;;;;;;5088720;28;20024;-77
2021/04/17 04:30:27;;;;;;;19.35;4.05;;;;;;;;;;5080031;28;20069;-78
2021/04/17 04:32:53;;;;;;;14.95;3.70;;;;;;;;;;5088347;28;20025;-78
2021/04/17 04:35:20;;;;;;;12.98;3.97;;;;;;;;;;5076606;28;20498;-77
2021/04/17 04:37:46;;;;;;;13.70;3.45;;;;;;;;;;5090592;28;20142;-80
2021/04/17 04:40:12;;;;;;;17.23;3.90;;;;;;;;;;5074900;28;20025;-77
2021/04/17 04:42:39;;;;;;;16.00;3.75;;;;;;;;;;5080301;28;20055;-77
2021/04/17 04:45:06;;;;;;;9.48;3.90;;;;;;;;;;5091440;28;20501;-77
2021/04/17 04:47:32;;;;;;;12.27;3.20;;;;;;;;;;5090231;28;20558;-78
2021/04/17 04:49:58;;;;;;;16.92;3.28;;;;;;;;;;5087020;28;20061;-78
2021/04/17 04:52:24;;;;;;;19.58;3.63;;;;;;;;;;5088620;28;20042;-78
2021/04/17 04:54:50;;;;;;;15.05;4.00;;;;;;;;;;5088498;28;20031;-78
2021/04/17 04:57:16;;;;;;;17.38;4.20;;;;;;;;;;5088482;28;20016;-77
2021/04/17 04:59:42;;;;;;;16.08;3.47;;;;;;;;;;5090299;28;20036;-78
2021/04/17 05:02:08;;;;;;;20.60;4.22;;;;;;;;;;5090093;28;20032;-79
2021/04/17 05:04:34;;;;;;;15.45;4.05;;;;;;;;;;5091037;28;20024;-78
2021/04/17 05:07:00;;;;;;;15.27;3.75;;;;;;;;;;5088817;28;20017;-77
2021/04/17 05:09:26;;;;;;;21.08;4.07;;;;;;;;;;5090173;28;20099;-76
2021/04/17 05:11:52;;;;;;;13.85;3.70;;;;;;;;;;5086401;28;20727;-77
2021/04/17 05:14:19;;;;;;;11.25;3.25;;;;;;;;;;5090306;28;20497;-77
2021/04/17 05:16:45;;;;;;;16.65;3.60;;;;;;;;;;5086512;28;20232;-77
2021/04/17 05:19:11;;;;;;;11.70;3.47;;;;;;;;;;5089264;28;20123;-78
2021/04/17 05:21:37;;;;;;;13.35;3.58;;;;;;;;;;5081743;28;20029;-77
2021/04/17 05:24:03;;;;;;;17.50;4.22;;;;;;;;;;5087578;28;20040;-77
2021/04/17 05:26:29;;;;;;;13.38;3.00;;;;;;;;;;5088682;28;20058;-78
2021/04/17 05:28:55;;;;;;;21.35;4.55;;;;;;;;;;5078278;28;20111;-79
2021/04/17 05:31:21;;;;;;;19.27;3.50;;;;;;;;;;5085175;28;20028;-77
2021/04/17 05:33:47;;;;;;;13.55;3.60;;;;;;;;;;5076970;28;20110;-77
2021/04/17 05:36:13;;;;;;;15.60;2.58;;;;;;;;;;5081623;28;20024;-77
2021/04/17 05:38:39;;;;;;;11.10;2.78;;;;;;;;;;5095119;28;20020;-77
2021/04/17 05:41:05;;;;;;;15.45;3.53;;;;;;;;;;5085677;28;20020;-78
2021/04/17 05:43:31;;;;;;;11.13;2.78;;;;;;;;;;5089391;28;20035;-77
2021/04/17 05:45:57;;;;;;;10.45;2.72;;;;;;;;;;5086845;28;20032;-78
2021/04/17 05:48:23;;;;;;;12.93;2.95;;;;;;;;;;5090962;28;20515;-77
2021/04/17 05:50:49;;;;;;;21.63;3.05;;;;;;;;;;5085637;28;20028;-76
2021/04/17 05:53:15;;;;;;;13.20;2.50;;;;;;;;;;5089311;28;20027;-77
2021/04/17 05:55:42;;;;;;;10.95;2.55;;;;;;;;;;5090169;28;20310;-78
2021/04/17 05:58:08;;;;;;;13.63;2.95;;;;;;;;;;5077613;28;20028;-78
2021/04/17 06:00:34;;;;;;;10.70;3.13;;;;;;;;;;5087625;28;20025;-83
2021/04/17 06:03:03;;;;;;;10.90;2.70;;;;;;;;;;5085665;28;20020;-78
2021/04/17 06:05:29;;;;;;;11.15;3.33;;;;;;;;;;5079992;28;20442;-80
2021/04/17 06:07:55;;;;;;;11.30;2.92;;;;;;;;;;5078522;28;20028;-77
2021/04/17 06:10:21;;;;;;;14.38;2.38;;;;;;;;;;5086760;28;20032;-77
2021/04/17 06:12:48;;;;;;;9.93;2.03;;;;;;;;;;5088276;28;20028;-78
2021/04/17 06:15:14;;;;;;;12.75;2.63;;;;;;;;;;5089693;28;20046;-78
2021/04/17 06:17:40;;;;;;;13.95;2.70;;;;;;;;;;5083929;28;20032;-78
2021/04/17 06:20:07;;;;;;;17.80;2.90;;;;;;;;;;5083114;28;20047;-78
2021/04/17 06:22:33;;;;;;;15.43;3.15;;;;;;;;;;5087064;28;20401;-77
2021/04/17 06:24:59;;;;;;;15.77;2.47;;;;;;;;;;5086891;28;20197;-77
2021/04/17 06:27:25;;;;;;;11.63;2.35;;;;;;;;;;5084246;28;20135;-77
2021/04/17 06:29:51;;;;;;;10.73;2.78;;;;;;;;;;5078100;28;20032;-78
2021/04/17 06:32:17;;;;;;;14.02;3.30;;;;;;;;;;5087292;28;20020;-79
2021/04/17 06:34:44;;;;;;;8.52;2.78;;;;;;;;;;5089017;28;20559;-78
2021/04/17 06:37:10;;;;;;;16.05;2.83;;;;;;;;;;5089397;28;20478;-78
2021/04/17 06:39:36;;;;;;;14.25;3.70;;;;;;;;;;5094571;28;20478;-78
2021/04/17 06:42:03;;;;;;;10.63;3.15;;;;;;;;;;5076324;28;20016;-78
2021/04/17 06:44:31;;;;;;;14.82;3.08;;;;;;;;;;5085305;28;20032;-78
2021/04/17 06:46:59;;;;;;;12.57;3.38;;;;;;;;;;5085233;28;20066;-77
2021/04/17 06:49:27;;;;;;;12.07;2.70;;;;;;;;;;5088367;28;20028;-78
2021/04/17 06:51:53;;;;;;;16.33;2.80;;;;;;;;;;5083603;28;20037;-78
2021/04/17 06:54:20;;;;;;;15.27;3.22;;;;;;;;;;5084985;28;20035;-78
2021/04/17 06:56:48;;;;;;;11.82;2.72;;;;;;;;;;5083857;28;20086;-76
2021/04/17 06:59:15;;;;;;;14.00;2.53;;;;;;;;;;5090326;28;20676;-76
2021/04/17 07:01:41;;;;;;;12.20;2.80;;;;;;;;;;5093124;28;20027;-76
2021/04/17 07:04:07;;;;;;;18.35;2.55;;;;;;;;;;5081191;28;20238;-76
2021/04/17 07:06:33;;;;;;;14.40;2.72;;;;;;;;;;5075845;28;20059;-76
2021/04/17 07:08:59;;;;;;;12.73;2.63;;;;;;;;;;5080397;28;20029;-78
2021/04/17 07:11:26;;;;;;;9.93;2.10;;;;;;;;;;5091560;28;20032;-77
2021/04/17 07:14:04;;;;;;;11.60;2.47;;;;;;;;;;5092343;28;20043;-79
2021/04/17 07:16:30;;;;;;;18.45;2.85;;;;;;;;;;5088170;28;20024;-79
2021/04/17 07:18:56;;;;;;;13.18;3.63;;;;;;;;;;5088865;28;20052;-81
2021/04/17 07:21:23;;;;;;;19.50;3.45;;;;;;;;;;5085792;28;20032;-79
2021/04/17 07:23:50;;;;;;;17.08;2.45;;;;;;;;;;5086480;28;20027;-77
2021/04/17 07:26:28;;;;;;;14.68;3.03;;;;;;;;;;5084870;28;20021;-77
2021/04/17 07:29:00;;;;;;;16.75;2.90;;;;;;;;;;5085700;28;20326;-79
2021/04/17 07:31:27;;;;;;;12.38;2.50;;;;;;;;;;5087621;28;20517;-75
2021/04/17 07:33:54;;;;;;;12.93;2.72;;;;;;;;;;5091949;28;20051;-76
2021/04/17 07:36:21;;;;;;;13.40;2.50;;;;;;;;;;5090734;28;20032;-77
2021/04/17 07:38:48;;;;;;;10.23;3.10;;;;;;;;;;5091004;28;20020;-77
2021/04/17 07:41:15;;;;;;;12.25;2.42;;;;;;;;;;5090475;28;20020;-78
2021/04/17 07:43:52;;;;;;;14.05;2.90;;;;;;;;;;5090037;28;20021;-78
2021/04/17 07:46:25;;;;;;;10.35;2.78;;;;;;;;;;5087450;28;20063;-79
2021/04/17 07:48:52;;;;;;;11.95;2.30;;;;;;;;;;5076872;28;20031;-79
2021/04/17 07:51:19;;;;;;;15.48;3.03;;;;;;;;;;5088224;28;20035;-78
2021/04/17 07:53:45;;;;;;;9.20;2.63;;;;;;;;;;5081717;28;20058;-80
2021/04/17 07:56:41;;;;;;;9.65;2.10;;;;;;;;;;5080574;28;20032;-80
2021/04/17 07:59:07;;;;;;;14.55;2.20;;;;;;;;;;5064142;28;20044;-80
2021/04/17 08:01:34;;;;;;;13.82;3.10;;;;;;;;;;5092335;28;20385;-81
2021/04/17 08:04:01;;;;;;;10.00;2.20;;;;;;;;;;5089967;28;20073;-78
2021/04/17 08:06:28;;;;;;;10.60;2.60;;;;;;;;;;5088243;28;20035;-78
2021/04/17 08:08:55;;;;;;;12.93;2.50;;;;;;;;;;5088338;28;20035;-78
2021/04/17 08:11:22;;;;;;;15.90;3.03;;;;;;;;;;5090361;28;20062;-79
2021/04/17 08:13:50;;;;;;;12.10;2.40;;;;;;;;;;5090870;28;20103;-78
2021/04/17 08:16:17;;;;;;;16.25;2.50;;;;;;;;;;5084867;28;20032;-83
2021/04/17 08:18:44;;;;;;;10.90;2.83;;;;;;;;;;5092206;28;20295;-78
2021/04/17 08:21:11;;;;;;;13.20;2.60;;;;;;;;;;5100448;28;20069;-77
2021/04/17 08:23:37;;;;;;;12.65;2.83;;;;;;;;;;5089085;28;20567;-80
2021/04/17 08:26:04;;;;;;;9.48;3.03;;;;;;;;;;5087183;28;20055;-78
2021/04/17 08:28:30;;;;;;;14.65;2.75;;;;;;;;;;5089200;28;20125;-77
2021/04/17 08:31:15;;;;;;;14.45;3.00;;;;;;;;;;5082237;28;21363;-81
2021/04/17 08:33:41;;;;;;;15.50;3.00;;;;;;;;;;5086748;28;20121;-80
2021/04/17 08:36:07;;;;;;;15.55;4.13;;;;;;;;;;5085012;28;20044;-84
2021/04/17 08:38:36;;;;;;;18.77;2.92;;;;;;;;;;5088650;28;20024;-78
2021/04/17 08:41:02;;;;;;;12.02;3.08;;;;;;;;;;5088294;28;20482;-79
2021/04/17 08:43:30;;;;;;;14.18;2.72;;;;;;;;;;5087268;28;20024;-79
2021/04/17 08:46:15;;;;;;;14.00;3.50;;;;;;;;;;5090792;28;20085;-79
2021/04/17 08:48:41;;;;;;;10.15;2.55;;;;;;;;;;5089820;28;20111;-81
2021/04/17 08:51:22;;;;;;;10.30;2.92;;;;;;;;;;5086069;28;20027;-80
2021/04/17 08:53:52;;;;;;;11.10;2.23;;;;;;;;;;5085731;28;20032;-79
2021/04/17 08:56:18;;;;;;;14.07;2.97;;;;;;;;;;5084933;28;20024;-76
2021/04/17 08:59:03;;;;;;;14.93;2.80;;;;;;;;;;5082153;28;20570;-79
2021/04/17 09:01:29;;;;;;;12.05;2.85;;;;;;;;;;5079553;28;20076;-79
2021/04/17 09:04:07;;;;;;;10.57;2.60;;;;;;;;;;5085829;28;20028;-77
2021/04/17 09:06:33;;;;;;;14.43;2.38;;;;;;;;;;5081984;28;20122;-78
2021/04/17 09:09:21;;;;;;;7.53;2.13;;;;;;;;;;5079687;28;20273;-79
2021/04/17 09:11:47;;;;;;;8.93;2.20;;;;;;;;;;5084299;28;20032;-78
2021/04/17 09:16:54;;;;;;;9.10;2.42;;;;;;;;;;5085671;28;20028;-79
2021/04/17 09:19:39;;;;;;;13.77;1.95;;;;;;;;;;5086236;28;20044;-79
2021/04/17 09:22:24;;;;;;;9.25;2.50;;;;;;;;;;5080755;28;20021;-73
2021/04/17 09:24:51;;;;;;;13.93;2.40;;;;;;;;;;5086322;28;20532;-81
2021/04/17 09:27:31;;;;;;;7.57;2.08;;;;;;;;;;5085155;28;20031;-78
2021/04/17 09:29:57;;;;;;;12.10;1.83;;;;;;;;;;5083740;28;20032;-79
2021/04/17 09:32:30;;;;;;;12.63;2.45;;;;;;;;;;5085892;28;20032;-81
2021/04/17 09:34:56;;;;;;;12.52;2.40;;;;;;;;;;5084325;28;20016;-77
2021/04/17 09:37:25;;;;;;;9.13;2.78;;;;;;;;;;5069477;28;20487;-78
2021/04/17 09:39:51;;;;;;;7.25;1.70;;;;;;;;;;5082107;28;20036;-79
2021/04/17 09:42:28;;;;;;;9.02;2.10;;;;;;;;;;5084554;28;20329;-79
2021/04/17 09:44:54;;;;;;;8.35;1.85;;;;;;;;;;5088090;28;20089;-78
2021/04/17 09:47:20;;;;;;;8.38;1.70;;;;;;;;;;5082885;28;20055;-80
2021/04/17 09:49:48;;;;;;;9.13;1.50;;;;;;;;;;5085293;28;20559;-80
2021/04/17 09:52:22;;;;;;;8.20;1.38;;;;;;;;;;5084138;28;20024;-77
2021/04/17 09:54:56;;;;;;;9.75;2.00;;;;;;;;;;5082917;28;20175;-75
2021/04/17 09:57:22;;;;;;;8.98;1.85;;;;;;;;;;5085107;28;20028;-79
2021/04/17 09:59:55;;;;;;;10.63;1.75;;;;;;;;;;5082424;28;20027;-76
2021/04/17 10:02:22;;;;;;;8.80;1.75;;;;;;;;;;5086158;28;20169;-78
2021/04/17 10:04:59;;;;;;;7.80;1.80;;;;;;;;;;5082428;28;20039;-74
2021/04/17 10:07:25;;;;;;;7.75;1.40;;;;;;;;;;5084524;28;20028;-77
2021/04/17 10:10:17;;;;;;;9.75;1.80;;;;;;;;;;5083137;28;20020;-79
2021/04/17 10:12:43;;;;;;;;;;;;;;;;;;5083073;28;20465;-77
2021/04/17 10:15:20;;;;;;;16.15;1.80;;;;;;;;;;5087541;28;20006;-75
2021/04/17 10:17:47;;;;;;;6.93;1.60;;;;;;;;;;5085148;28;20036;-77
2021/04/17 10:20:13;;;;;;;5.97;1.23;;;;;;;;;;5086464;28;20028;-79
2021/04/17 10:22:40;;;;;;;12.93;2.85;;;;;;;;;;5085916;28;20024;-77
2021/04/17 10:25:09;;;;;;;7.53;1.83;;;;;;;;;;5088235;28;20047;-81
2021/04/17 10:27:37;;;;;;;9.18;1.80;;;;;;;;;;5087633;28;20030;-81
2021/04/17 10:30:14;;;;;;;7.13;1.70;;;;;;;;;;5085542;28;20602;-77
2021/04/17 10:32:40;;;;;;;9.35;1.90;;;;;;;;;;5083623;28;20043;-77
2021/04/17 10:35:08;;;;;;;13.70;2.22;;;;;;;;;;5088681;28;20043;-76
2021/04/17 10:37:40;;;;;;;10.90;2.08;;;;;;;;;;5091332;28;20031;-79
2021/04/17 10:40:07;;;;;;;9.48;2.00;;;;;;;;;;5089087;28;20076;-81
2021/04/17 10:42:44;;;;;;;8.98;1.77;;;;;;;;;;5094459;28;20073;-79
2021/04/17 10:45:10;;;;;;;16.13;4.47;;;;;;;;;;5087792;28;20025;-81
2021/04/17 10:47:36;;;;;;;12.45;2.58;;;;;;;;;;5092357;28;20093;-79
2021/04/17 10:50:16;;;;;;;7.57;2.10;;;;;;;;;;5089275;28;20032;-80
2021/04/17 10:52:43;;;;;;;10.82;1.95;;;;;;;;;;5089489;28;20073;-78
2021/04/17 10:55:10;;;;;;;7.75;1.60;;;;;;;;;;5089236;28;20409;-76
2021/04/17 10:57:43;;;;;;;7.40;2.00;;;;;;;;;;5089262;28;20035;-77
2021/04/17 11:00:10;;;;;;;9.98;2.10;;;;;;;;;;5081691;28;20052;-78
2021/04/17 11:02:36;;;;;;;13.68;2.75;;;;;;;;;;5091062;28;20036;-81
2021/04/17 11:05:04;;;;;;;7.95;1.80;;;;;;;;;;5088787;28;20068;-78
2021/04/17 11:07:39;;;;;;;11.57;1.92;;;;;;;;;;5073679;28;20452;-76
2021/04/17 11:10:10;;;;;;;9.35;1.63;;;;;;;;;;5081351;28;20473;-76
2021/04/17 11:12:37;;;;;;;9.10;1.80;;;;;;;;;;5083594;28;20048;-79
2021/04/17 11:15:21;;;;;;;7.18;1.65;;;;;;;;;;5090558;28;20119;-79
2021/04/17 11:18:06;;;;;;;11.73;2.45;;;;;;;;;;5089999;28;20040;-75
2021/04/17 11:20:42;;;;;;;7.40;1.70;;;;;;;;;;5093490;28;20211;-79
2021/04/17 11:23:28;;;;;;;5.45;1.40;;;;;;;;;;5090295;28;20028;-79
2021/04/17 11:25:54;;;;;;;12.93;2.40;;;;;;;;;;5084827;28;20063;-79
2021/04/17 11:28:20;;;;;;;9.52;1.90;;;;;;;;;;5080830;28;20029;-77
2021/04/17 11:30:46;;;;;;;8.63;1.67;;;;;;;;;;5085373;28;20016;-77
2021/04/17 11:33:12;;;;;;;9.73;1.77;;;;;;;;;;5090955;28;20089;-73
2021/04/17 11:35:38;;;;;;;11.55;1.90;;;;;;;;;;5091250;28;20081;-73
2021/04/17 11:38:04;;;;;;;6.78;2.05;;;;;;;;;;5088597;28;20040;-78
2021/04/17 11:40:30;;;;;;;8.07;1.70;;;;;;;;;;5087401;28;20028;-74
2021/04/17 11:42:56;;;;;;;12.70;2.08;;;;;;;;;;5082287;28;20020;-76
2021/04/17 11:45:22;;;;;;;5.78;1.90;;;;;;;;;;5087352;28;20020;-77
2021/04/17 11:47:48;;;;;;;14.43;2.28;;;;;;;;;;5089084;28;20034;-78
2021/04/17 11:50:14;;;;;;;19.25;2.25;;;;;;;;;;5087216;28;20085;-79
2021/04/17 11:52:40;;;;;;;12.43;2.30;;;;;;;;;;5084564;28;20035;-81
2021/04/17 11:55:07;;;;;;;10.95;2.30;;;;;;;;;;5090165;28;20520;-77
2021/04/17 11:57:33;;;;;;;9.95;2.25;;;;;;;;;;5086219;28;20024;-80
2021/04/17 12:00:01;;;;;;;12.88;2.95;;;;;;;;;;5087784;28;20028;-78
2021/04/17 12:02:27;;;;;;;10.48;2.83;;;;;;;;;;5082031;28;20016;-79
2021/04/17 12:04:53;;;;;;;13.05;2.53;;;;;;;;;;5086122;28;20016;-82
2021/04/17 12:07:21;;;;;;;12.50;2.90;;;;;;;;;;5088093;28;20052;-77
2021/04/17 12:09:47;;;;;;;13.27;2.47;;;;;;;;;;5088063;28;20070;-82
2021/04/17 12:12:13;;;;;;;10.82;2.47;;;;;;;;;;5089281;28;20461;-82
2021/04/17 12:14:39;;;;;;;16.80;2.92;;;;;;;;;;5091483;28;20020;-75
2021/04/17 12:17:05;;;;;;;18.13;2.90;;;;;;;;;;5088839;28;20077;-78
2021/04/17 12:19:34;;;;;;;9.10;2.40;;;;;;;;;;5091700;28;20044;-75
2021/04/17 12:22:00;;;;;;;11.85;2.80;;;;;;;;;;5095312;28;20047;-73
2021/04/17 12:24:27;;;;;;;11.65;2.80;;;;;;;;;;5084727;28;20028;-80
2021/04/17 12:26:53;;;;;;;16.00;2.17;;;;;;;;;;5088403;28;20326;-80
2021/04/17 12:29:19;;;;;;;9.45;2.58;;;;;;;;;;5083750;28;20114;-78
2021/04/17 12:31:45;;;;;;;12.48;2.65;;;;;;;;;;5084680;28;20036;-80
2021/04/17 12:34:11;;;;;;;9.48;2.40;;;;;;;;;;5084066;28;20028;-78
2021/04/17 12:36:37;;;;;;;12.73;2.95;;;;;;;;;;5098202;28;20107;-75
2021/04/17 12:39:04;;;;;;;11.27;2.47;;;;;;;;;;5106041;28;20236;-77
2021/04/17 12:41:30;;;;;;;17.30;2.50;;;;;;;;;;5105715;28;20040;-74
2021/04/17 12:43:56;;;;;;;18.67;3.20;;;;;;;;;;5107170;28;20024;-78
2021/04/17 12:46:22;;;;;;;17.05;3.75;;;;;;;;;;5092691;28;20087;-80
2021/04/17 12:48:48;;;;;;;13.70;3.33;;;;;;;;;;5084198;28;20066;-79
2021/04/17 12:51:14;;;;;;;13.27;2.75;;;;;;;;;;5085049;28;20020;-79
2021/04/17 12:53:40;;;;;;;13.88;3.60;;;;;;;;;;5085026;28;20028;-79
2021/04/17 12:56:07;;;;;;;13.70;3.05;;;;;;;;;;5078096;28;20028;-77
2021/04/17 12:58:37;;;;;;;14.45;2.55;;;;;;;;;;5088374;28;20035;-78
2021/04/17 13:01:03;;;;;;;10.07;3.03;;;;;;;;;;5085281;28;20032;-80
2021/04/17 13:03:29;;;;;;;9.60;2.47;;;;;;;;;;5098097;28;20024;-81
2021/04/17 13:05:55;;;;;;;12.63;2.75;;;;;;;;;;5091181;28;20111;-78
2021/04/17 13:08:24;;;;;;;14.27;2.95;;;;;;;;;;5091826;28;20054;-75
2021/04/17 13:10:50;;;;;;;11.05;2.42;;;;;;;;;;5080693;28;20024;-76
2021/04/17 13:13:16;;;;;;;12.48;3.42;;;;;;;;;;5087097;28;20085;-70
2021/04/17 13:15:45;;;;;;;14.52;3.53;;;;;;;;;;5088202;28;20031;-77
2021/04/17 13:18:11;;;;;;;11.20;2.38;;;;;;;;;;5091130;28;20047;-79
2021/04/17 13:20:37;;;;;;;9.43;2.42;;;;;;;;;;5089214;28;20028;-80
2021/04/17 13:23:03;;;;;;;10.55;3.05;;;;;;;;;;5084814;28;20486;-80
2021/04/17 13:25:30;;;;;;;18.90;3.58;;;;;;;;;;5087110;28;20066;-73
2021/04/17 13:27:56;;;;;;;15.45;2.95;;;;;;;;;;5088816;28;20591;-73
2021/04/17 13:30:22;;;;;;;19.75;3.03;;;;;;;;;;5080820;28;20490;-77
2021/04/17 13:32:49;;;;;;;15.13;3.08;;;;;;;;;;5088296;28;20032;-80
2021/04/17 13:35:15;;;;;;;14.85;3.05;;;;;;;;;;5087122;28;20032;-79
2021/04/17 13:37:41;;;;;;;13.10;3.22;;;;;;;;;;5088072;28;20024;-73
2021/04/17 13:40:07;;;;;;;12.68;2.60;;;;;;;;;;5087482;28;20573;-79
2021/04/17 13:42:34;;;;;;;15.60;2.75;;;;;;;;;;5084616;28;20031;-79
2021/04/17 13:45:00;;;;;;;13.07;2.55;;;;;;;;;;5084137;28;20016;-78
2021/04/17 13:47:26;;;;;;;14.85;2.70;;;;;;;;;;5085185;28;20020;-76
2021/04/17 13:49:52;;;;;;;12.23;2.95;;;;;;;;;;5078989;28;20020;-74
2021/04/17 13:52:18;;;;;;;11.07;2.22;;;;;;;;;;5092330;28;20020;-74
2021/04/17 13:54:44;;;;;;;13.40;3.15;;;;;;;;;;5088920;28;20020;-76
2021/04/17 13:57:10;;;;;;;16.73;2.80;;;;;;;;;;5091755;28;20081;-71
2021/04/17 13:59:36;;;;;;;7.70;2.63;;;;;;;;;;5084179;28;20107;-73
2021/04/17 14:02:03;;;;;;;13.48;2.63;;;;;;;;;;5092028;28;20031;-77
2021/04/17 14:04:29;;;;;;;12.68;2.70;;;;;;;;;;5089620;28;20024;-77
2021/04/17 14:06:55;;;;;;;12.60;2.97;;;;;;;;;;5092615;28;20024;-78
2021/04/17 14:09:21;;;;;;;16.25;3.10;;;;;;;;;;5091155;28;20482;-75
2021/04/17 14:11:48;;;;;;;12.35;2.25;;;;;;;;;;5097045;28;20035;-79
2021/04/17 14:14:14;;;;;;;11.73;2.97;;;;;;;;;;5092755;28;20028;-76
2021/04/17 14:16:41;;;;;;;16.83;2.75;;;;;;;;;;5092623;28;20052;-77
2021/04/17 14:19:07;;;;;;;14.35;2.70;;;;;;;;;;5092012;28;20040;-72
2021/04/17 14:21:33;;;;;;;13.10;2.28;;;;;;;;;;5087349;28;20031;-75
2021/04/17 14:23:59;;;;;;;9.82;2.38;;;;;;;;;;5103035;28;20013;-76
2021/04/17 14:26:25;;;;;;;12.88;3.42;;;;;;;;;;5095679;28;20034;-72
2021/04/17 14:28:51;;;;;;;11.63;2.40;;;;;;;;;;5088351;28;20501;-72
2021/04/17 14:31:17;;;;;;;15.25;3.10;;;;;;;;;;5087041;28;20082;-74
2021/04/17 14:33:44;;;;;;;20.05;3.55;;;;;;;;;;5094342;28;20028;-74
2021/04/17 14:36:10;;;;;;;11.93;2.22;;;;;;;;;;5089825;28;20043;-75
2021/04/17 14:38:36;;;;;;;12.80;2.95;;;;;;;;;;5094361;28;20028;-76